Time;durP1;ratioP1;P1;durP2;ratioP2;P2;SDS_P1;SDS_P2;PMS_P1;PMS_P2;Temp;Humidity;BMP_temperature;BMP_pressure;BME280_temperature;BME280_humidity;BME280_pressure;Samples;Min_cycle;Max_cycle;Signal;HPM_P1;HPM_P2
2022/07/13 00:00:46;;;;;;;5.25;2.20;;;22.50;88.90;;;;;;6179006;23;20020;-65
2022/07/13 00:03:49;;;;;;;3.92;1.80;;;22.50;89.20;;;;;;6178412;23;20329;-64
2022/07/13 00:06:53;;;;;;;3.65;2.00;;;22.50;90.00;;;;;;6179133;23;20024;-65
2022/07/13 00:09:58;;;;;;;6.53;2.20;;;22.50;90.10;;;;;;6186819;23;20020;-65
2022/07/13 00:13:02;;;;;;;4.00;2.17;;;22.40;90.30;;;;;;6179560;23;20028;-65
2022/07/13 00:16:06;;;;;;;2.88;1.70;;;22.40;90.40;;;;;;6179059;23;20020;-66
2022/07/13 00:19:10;;;;;;;7.95;2.17;;;22.40;90.40;;;;;;6185480;23;20024;-65
2022/07/13 00:22:14;;;;;;;4.00;2.55;;;22.50;90.50;;;;;;6178865;23;20016;-65
2022/07/13 00:25:18;;;;;;;11.23;2.13;;;22.50;90.70;;;;;;6178435;23;20020;-65
2022/07/13 00:28:22;;;;;;;6.38;2.90;;;22.50;90.80;;;;;;6179730;23;20020;-66
2022/07/13 00:31:26;;;;;;;9.63;2.00;;;22.50;91.10;;;;;;6179849;23;20020;-65
2022/07/13 00:34:30;;;;;;;4.15;2.20;;;22.50;91.20;;;;;;6179876;23;20332;-64
2022/07/13 00:37:35;;;;;;;5.35;2.30;;;22.50;91.40;;;;;;6180685;23;20490;-65
2022/07/13 00:40:39;;;;;;;4.15;1.90;;;22.40;91.70;;;;;;6179314;23;20024;-64
2022/07/13 00:43:42;;;;;;;3.38;2.13;;;22.40;91.90;;;;;;6179235;23;20451;-64
2022/07/13 00:46:54;;;;;;;4.70;2.30;;;22.30;91.90;;;;;;6179131;23;20352;-65
2022/07/13 00:50:06;;;;;;;9.25;2.60;;;22.30;92.20;;;;;;6178765;23;20024;-65
2022/07/13 00:53:10;;;;;;;7.45;2.20;;;22.20;92.20;;;;;;6178651;23;20451;-66
2022/07/13 00:56:15;;;;;;;3.40;2.08;;;22.30;92.50;;;;;;6179613;23;20028;-64
2022/07/13 00:59:18;;;;;;;3.30;2.20;;;22.30;92.40;;;;;;6179048;23;20024;-64
2022/07/13 01:02:24;;;;;;;4.05;2.15;;;22.30;92.90;;;;;;6182360;23;20218;-65
2022/07/13 01:05:28;;;;;;;3.90;2.30;;;22.10;93.00;;;;;;6186274;23;20020;-65
2022/07/13 01:08:34;;;;;;;5.93;2.15;;;21.90;93.30;;;;;;6182793;23;20336;-65
2022/07/13 01:11:39;;;;;;;2.70;2.03;;;21.90;93.50;;;;;;6183445;23;20447;-64
2022/07/13 01:14:43;;;;;;;9.07;3.13;;;21.80;93.90;;;;;;6178576;23;20475;-65
2022/07/13 01:17:48;;;;;;;6.82;2.80;;;21.80;94.40;;;;;;6164061;23;20035;-65
2022/07/13 01:20:53;;;;;;;4.60;2.90;;;21.80;95.00;;;;;;6164557;23;20028;-65
2022/07/13 01:23:57;;;;;;;8.95;2.80;;;21.80;95.10;;;;;;6180327;23;20017;-65
2022/07/13 01:27:01;;;;;;;7.78;3.20;;;21.70;96.20;;;;;;6162715;23;20358;-65
2022/07/13 01:30:06;;;;;;;3.15;2.65;;;21.70;97.00;;;;;;6178847;23;20024;-65
2022/07/13 01:33:11;;;;;;;10.32;2.72;;;21.70;98.00;;;;;;6182786;23;20028;-64
2022/07/13 01:36:15;;;;;;;4.25;2.65;;;21.70;98.50;;;;;;6185241;23;20016;-65
2022/07/13 01:39:20;;;;;;;4.38;2.80;;;21.70;99.10;;;;;;6179887;23;20020;-65
2022/07/13 01:42:24;;;;;;;6.55;2.90;;;21.70;99.60;;;;;;6184209;23;20016;-65
2022/07/13 01:45:28;;;;;;;5.22;3.35;;;21.70;99.90;;;;;;6162231;23;20017;-65
2022/07/13 01:48:32;;;;;;;3.30;3.00;;;21.70;99.90;;;;;;6181771;23;20064;-65
2022/07/13 01:51:37;;;;;;;6.05;2.67;;;21.80;99.90;;;;;;6165084;23;20024;-65
2022/07/13 01:54:41;;;;;;;4.38;2.30;;;21.80;99.90;;;;;;6159919;23;20024;-66
2022/07/13 01:57:46;;;;;;;7.75;2.85;;;21.80;99.90;;;;;;6181972;23;20455;-65
2022/07/13 02:00:50;;;;;;;4.28;3.35;;;21.80;99.90;;;;;;6161111;23;20016;-65
2022/07/13 02:03:54;;;;;;;5.30;2.97;;;21.70;99.90;;;;;;6179727;23;20016;-66
2022/07/13 02:06:57;;;;;;;7.97;3.67;;;21.70;99.90;;;;;;6162452;23;20017;-65
2022/07/13 02:10:03;;;;;;;7.18;3.88;;;21.60;99.90;;;;;;6160479;23;20023;-66
2022/07/13 02:13:11;;;;;;;7.50;4.10;;;21.60;99.90;;;;;;6164528;23;20466;-65
2022/07/13 02:16:16;;;;;;;7.28;4.00;;;21.60;99.90;;;;;;6160209;23;20201;-65
2022/07/13 02:19:21;;;;;;;6.57;4.38;;;21.60;99.90;;;;;;6162059;23;20020;-65
2022/07/13 02:22:25;;;;;;;6.63;3.80;;;21.60;99.90;;;;;;6164306;23;20020;-65
2022/07/13 02:25:35;;;;;;;6.35;3.67;;;21.60;99.90;;;;;;6178094;23;20020;-66
2022/07/13 02:28:40;;;;;;;6.25;3.47;;;21.60;99.90;;;;;;6179130;23;20024;-65
2022/07/13 02:31:44;;;;;;;4.15;3.67;;;21.50;99.90;;;;;;6178506;23;20300;-65
2022/07/13 02:34:48;;;;;;;5.28;3.20;;;21.50;99.90;;;;;;6178910;23;20503;-65
2022/07/13 02:37:52;;;;;;;5.30;3.13;;;21.50;99.90;;;;;;6166072;23;20328;-65
2022/07/13 02:40:56;;;;;;;8.35;3.08;;;21.50;99.90;;;;;;6161135;23;20020;-65
2022/07/13 02:44:01;;;;;;;5.40;3.42;;;21.50;99.90;;;;;;6164043;23;20016;-66
2022/07/13 02:47:05;;;;;;;3.72;3.30;;;21.50;99.90;;;;;;6165463;23;20463;-66
2022/07/13 02:50:10;;;;;;;5.15;3.65;;;21.50;99.90;;;;;;6180530;23;20024;-65
2022/07/13 02:53:14;;;;;;;5.18;3.47;;;21.40;99.90;;;;;;6164900;23;20027;-65
2022/07/13 02:56:18;;;;;;;12.85;5.00;;;21.50;99.90;;;;;;6160789;23;20344;-65
2022/07/13 02:59:22;;;;;;;12.13;3.67;;;21.40;99.90;;;;;;6162461;23;20040;-65
2022/07/13 03:02:26;;;;;;;4.80;3.03;;;21.40;99.90;;;;;;6164259;23;20361;-65
2022/07/13 03:05:31;;;;;;;5.15;3.10;;;21.40;99.90;;;;;;6160602;23;20012;-65
2022/07/13 03:08:34;;;;;;;10.63;4.38;;;21.40;99.90;;;;;;6161995;23;20458;-65
2022/07/13 03:11:38;;;;;;;4.25;3.20;;;21.20;99.90;;;;;;6162397;23;20039;-65
2022/07/13 03:14:43;;;;;;;10.27;3.00;;;21.00;99.90;;;;;;6161464;23;20020;-65
2022/07/13 03:17:48;;;;;;;5.78;3.60;;;20.90;99.90;;;;;;6168081;23;20024;-65
2022/07/13 03:20:53;;;;;;;7.00;3.38;;;20.90;99.90;;;;;;6181732;23;20028;-65
2022/07/13 03:23:57;;;;;;;7.47;3.40;;;20.80;99.90;;;;;;6160681;23;20016;-65
2022/07/13 03:27:01;;;;;;;5.55;3.40;;;20.70;99.90;;;;;;6165624;23;20016;-65
2022/07/13 03:30:07;;;;;;;8.98;3.08;;;20.70;99.90;;;;;;6148433;23;20020;-65
2022/07/13 03:33:11;;;;;;;6.22;3.50;;;20.60;99.90;;;;;;6143520;23;20024;-64
2022/07/13 03:36:16;;;;;;;8.43;3.47;;;20.50;99.90;;;;;;6163890;23;20024;-64
2022/07/13 03:39:21;;;;;;;5.13;2.90;;;20.40;99.90;;;;;;6166621;23;20341;-65
2022/07/13 03:42:25;;;;;;;6.13;3.70;;;20.30;99.90;;;;;;6161008;23;20015;-64
2022/07/13 03:45:29;;;;;;;5.28;3.10;;;20.20;99.90;;;;;;6165096;23;20063;-65
2022/07/13 03:48:35;;;;;;;4.03;3.15;;;20.10;99.90;;;;;;6161047;23;20020;-65
2022/07/13 03:51:40;;;;;;;10.25;4.07;;;20.00;99.90;;;;;;6179959;23;20028;-65
2022/07/13 03:54:45;;;;;;;8.23;3.63;;;20.00;99.90;;;;;;6160650;23;20024;-65
2022/07/13 03:57:49;;;;;;;4.15;3.35;;;20.00;99.90;;;;;;6165471;23;20041;-64
2022/07/13 04:00:55;;;;;;;8.13;2.97;;;19.90;99.90;;;;;;6161303;23;20016;-65
2022/07/13 04:04:00;;;;;;;5.80;3.22;;;20.00;99.90;;;;;;6160342;23;20016;-65
2022/07/13 04:07:04;;;;;;;4.10;3.15;;;19.90;99.90;;;;;;6163434;23;20059;-65
2022/07/13 04:10:10;;;;;;;3.92;3.17;;;20.00;99.90;;;;;;6164037;23;20024;-65
2022/07/13 04:13:15;;;;;;;5.18;3.40;;;19.90;99.90;;;;;;6161062;23;20036;-64
2022/07/13 04:16:19;;;;;;;8.77;3.05;;;19.80;99.90;;;;;;6161146;23;20336;-65
2022/07/13 04:19:24;;;;;;;5.22;3.40;;;19.80;99.90;;;;;;6162803;23;20020;-65
2022/07/13 04:22:29;;;;;;;5.55;3.35;;;19.70;99.90;;;;;;6160610;23;20020;-65
2022/07/13 04:25:34;;;;;;;7.35;3.50;;;19.60;99.90;;;;;;6160799;23;20020;-64
2022/07/13 04:28:38;;;;;;;4.15;3.10;;;19.60;99.90;;;;;;6162250;23;20474;-64
2022/07/13 04:31:43;;;;;;;3.85;3.28;;;19.70;99.90;;;;;;6162288;23;20020;-64
2022/07/13 04:34:48;;;;;;;9.00;3.22;;;19.70;99.90;;;;;;6164978;23;20020;-64
2022/07/13 04:37:52;;;;;;;7.05;3.35;;;19.80;99.90;;;;;;6161428;23;20336;-64
2022/07/13 04:40:57;;;;;;;15.98;4.07;;;21.70;99.90;;;;;;6163154;23;20020;-65
2022/07/13 04:44:00;;;;;;;5.13;3.00;;;23.00;99.90;;;;;;6178497;23;20012;-65
2022/07/13 04:47:06;;;;;;;7.25;2.95;;;24.90;99.90;;;;;;6162326;23;20021;-64
2022/07/13 04:50:11;;;;;;;7.65;3.03;;;26.30;99.90;;;;;;6164135;23;20020;-65
2022/07/13 04:53:15;;;;;;;3.47;2.80;;;27.20;99.10;;;;;;6165170;23;20347;-65
2022/07/13 04:56:20;;;;;;;8.52;3.05;;;28.00;97.50;;;;;;6161529;23;20026;-65
2022/07/13 04:59:24;;;;;;;4.55;2.90;;;28.10;96.80;;;;;;6165517;23;20024;-65
2022/07/13 05:02:28;;;;;;;7.20;3.08;;;28.20;95.90;;;;;;6161608;23;20024;-65
2022/07/13 05:05:33;;;;;;;8.70;2.97;;;28.40;96.00;;;;;;6178207;23;20037;-65
2022/07/13 05:08:38;;;;;;;7.35;2.63;;;29.20;95.20;;;;;;6160187;23;20027;-65
2022/07/13 05:11:41;;;;;;;4.97;2.35;;;29.80;93.90;;;;;;6160801;23;20040;-65
2022/07/13 05:14:45;;;;;;;6.63;2.70;;;30.30;93.20;;;;;;6170169;23;20020;-65
2022/07/13 05:17:50;;;;;;;4.57;2.40;;;29.90;92.50;;;;;;6162949;23;20024;-65
2022/07/13 05:20:55;;;;;;;4.68;2.45;;;30.60;92.60;;;;;;6164060;23;20037;-65
2022/07/13 05:24:02;;;;;;;6.68;2.40;;;31.50;91.20;;;;;;6164078;23;20459;-65
2022/07/13 05:27:06;;;;;;;4.35;2.50;;;32.30;90.30;;;;;;6161087;23;20020;-64
2022/07/13 05:30:10;;;;;;;9.57;2.72;;;32.70;87.70;;;;;;6163497;23;20024;-65
2022/07/13 05:33:16;;;;;;;8.32;2.60;;;31.40;89.00;;;;;;6162528;23;20024;-65
2022/07/13 05:36:21;;;;;;;10.82;2.55;;;29.50;90.30;;;;;;6161659;23;20028;-64
2022/07/13 05:39:26;;;;;;;4.40;2.20;;;30.20;90.60;;;;;;6162689;23;20040;-65
2022/07/13 05:42:31;;;;;;;6.15;2.40;;;31.50;89.20;;;;;;6162720;23;20039;-65
2022/07/13 05:45:37;;;;;;;4.85;2.58;;;32.50;87.10;;;;;;6162755;23;20024;-65
2022/07/13 05:48:41;;;;;;;3.92;2.30;;;33.00;85.00;;;;;;6160572;23;20019;-65
2022/07/13 05:51:46;;;;;;;7.15;2.40;;;32.80;84.60;;;;;;6180280;23;20016;-65
2022/07/13 05:54:51;;;;;;;5.32;2.33;;;32.70;84.40;;;;;;6159173;23;20028;-65
2022/07/13 05:57:54;;;;;;;8.00;2.78;;;33.00;83.20;;;;;;6162393;23;20017;-65
2022/07/13 06:00:58;;;;;;;3.22;2.05;;;33.00;82.90;;;;;;6179164;23;20071;-65
2022/07/13 06:04:02;;;;;;;6.82;2.65;;;33.00;82.40;;;;;;6159994;23;20024;-66
2022/07/13 06:07:06;;;;;;;5.20;2.20;;;32.80;81.70;;;;;;6179953;23;20012;-66
2022/07/13 06:10:10;;;;;;;3.15;1.85;;;32.20;82.30;;;;;;6180742;23;20024;-66
2022/07/13 06:13:15;;;;;;;3.15;1.92;;;32.10;82.80;;;;;;6179596;23;20071;-65
2022/07/13 06:16:19;;;;;;;6.82;3.03;;;32.60;82.30;;;;;;6177696;23;20020;-66
2022/07/13 06:19:23;;;;;;;10.75;2.55;;;32.80;81.30;;;;;;6178397;23;20024;-65
2022/07/13 06:22:27;;;;;;;9.95;2.08;;;33.40;80.30;;;;;;6177794;23;20474;-66
2022/07/13 06:25:31;;;;;;;5.07;1.90;;;33.70;79.70;;;;;;6186337;23;20024;-65
2022/07/13 06:28:35;;;;;;;5.72;2.00;;;34.10;78.30;;;;;;6187312;23;20024;-65
2022/07/13 06:31:39;;;;;;;2.72;1.92;;;33.70;78.20;;;;;;6187042;23;20031;-65
2022/07/13 06:34:43;;;;;;;2.67;1.77;;;33.40;78.30;;;;;;6186592;23;20020;-66
2022/07/13 06:37:47;;;;;;;4.13;2.10;;;32.60;78.70;;;;;;6187159;23;20455;-65
2022/07/13 06:40:51;;;;;;;7.68;1.90;;;31.50;80.40;;;;;;6187338;23;20020;-65
2022/07/13 06:43:55;;;;;;;3.55;1.63;;;31.50;81.50;;;;;;6178396;23;20286;-65
2022/07/13 06:46:59;;;;;;;4.97;1.85;;;32.10;80.80;;;;;;6185106;23;20020;-65
2022/07/13 06:50:06;;;;;;;3.80;1.90;;;32.30;80.10;;;;;;6177775;23;20020;-65
2022/07/13 06:53:10;;;;;;;5.13;1.90;;;32.80;79.70;;;;;;6177721;23;20028;-65
2022/07/13 06:56:14;;;;;;;4.78;1.88;;;32.50;79.60;;;;;;6177290;23;20024;-66
2022/07/13 06:59:18;;;;;;;3.50;1.88;;;33.30;79.10;;;;;;6178044;23;20020;-66
2022/07/13 07:02:22;;;;;;;5.50;2.00;;;34.30;76.90;;;;;;6177775;23;20023;-66
2022/07/13 07:05:26;;;;;;;5.75;1.50;;;35.10;75.50;;;;;;6177441;23;20020;-65
2022/07/13 07:08:30;;;;;;;6.53;2.15;;;34.70;75.30;;;;;;6179678;23;20016;-65
2022/07/13 07:11:34;;;;;;;6.78;1.90;;;33.90;76.30;;;;;;6179581;23;20016;-66
2022/07/13 07:14:38;;;;;;;5.97;1.52;;;35.00;75.10;;;;;;6177314;23;20028;-66
2022/07/13 07:17:49;;;;;;;5.35;1.60;;;34.70;74.70;;;;;;6180558;23;20016;-66
2022/07/13 07:20:53;;;;;;;4.05;1.70;;;33.90;74.80;;;;;;6178527;23;20463;-65
2022/07/13 07:23:56;;;;;;;3.53;1.75;;;33.60;75.80;;;;;;6178003;23;20017;-65
2022/07/13 07:27:02;;;;;;;3.17;1.73;;;35.00;74.10;;;;;;6162056;23;20023;-65
2022/07/13 07:30:07;;;;;;;5.15;1.65;;;36.00;71.70;;;;;;6180641;23;20028;-65
2022/07/13 07:33:11;;;;;;;3.42;1.92;;;35.30;70.90;;;;;;6180044;23;20031;-66
2022/07/13 07:36:16;;;;;;;5.22;1.60;;;35.30;72.50;;;;;;6180596;23;20062;-65
2022/07/13 07:39:20;;;;;;;4.85;1.42;;;36.00;71.20;;;;;;6179580;23;20020;-65
2022/07/13 07:42:25;;;;;;;4.40;1.48;;;36.20;70.00;;;;;;6179981;23;20332;-66
2022/07/13 07:45:28;;;;;;;2.88;1.42;;;36.80;69.70;;;;;;6179350;23;20032;-65
2022/07/13 07:48:32;;;;;;;4.38;1.77;;;36.80;70.10;;;;;;6180183;23;20028;-65
2022/07/13 07:51:36;;;;;;;2.85;1.60;;;36.90;69.70;;;;;;6178954;23;20016;-65
2022/07/13 07:54:41;;;;;;;3.45;1.27;;;38.20;68.90;;;;;;6178079;23;20028;-66
2022/07/13 07:57:46;;;;;;;6.88;1.67;;;39.40;67.10;;;;;;6179529;23;20048;-65
2022/07/13 08:00:50;;;;;;;2.97;1.40;;;38.60;66.30;;;;;;6180023;23;20478;-66
2022/07/13 08:03:54;;;;;;;7.22;1.65;;;38.90;66.30;;;;;;6177960;23;20020;-66
2022/07/13 08:06:59;;;;;;;3.15;1.10;;;39.70;64.70;;;;;;6178623;23;20024;-65
2022/07/13 08:10:04;;;;;;;3.47;1.40;;;39.10;65.20;;;;;;6179697;23;20511;-65
2022/07/13 08:13:08;;;;;;;3.72;1.30;;;37.60;66.20;;;;;;6178819;23;20016;-65
2022/07/13 08:16:16;;;;;;;4.35;1.17;;;38.80;65.60;;;;;;6180083;23;20013;-65
2022/07/13 08:19:20;;;;;;;1.92;1.65;;;39.00;64.30;;;;;;6180440;23;20024;-65
2022/07/13 08:22:24;;;;;;;4.43;1.40;;;37.40;66.10;;;;;;6179700;23;20027;-65
2022/07/13 08:25:28;;;;;;;5.10;1.23;;;38.10;65.30;;;;;;6177879;23;20021;-65
2022/07/13 08:28:32;;;;;;;4.00;1.38;;;38.50;64.10;;;;;;6182398;23;20004;-65
2022/07/13 08:31:36;;;;;;;4.70;1.30;;;37.40;64.80;;;;;;6181265;23;20036;-65
2022/07/13 08:41:44;;;;;;;4.22;1.45;;;37.90;62.40;;;;;;6114271;23;20400;-66
2022/07/13 08:44:49;;;;;;;2.60;1.20;;;37.60;64.20;;;;;;6178668;23;20699;-65
2022/07/13 08:47:55;;;;;;;3.55;1.40;;;36.70;63.40;;;;;;6182169;23;20363;-64
2022/07/13 08:51:00;;;;;;;3.33;1.20;;;38.50;63.60;;;;;;6177484;23;20028;-65
2022/07/13 08:54:04;;;;;;;5.70;1.63;;;38.00;63.70;;;;;;6177121;23;20506;-64
2022/07/13 08:57:09;;;;;;;2.38;1.00;;;38.90;62.90;;;;;;6178450;23;20020;-65
2022/07/13 09:00:15;;;;;;;6.97;1.30;;;41.00;61.00;;;;;;6180367;23;20028;-65
2022/07/13 09:03:20;;;;;;;2.15;1.00;;;38.50;60.80;;;;;;6178043;23;20016;-65
2022/07/13 09:06:39;;;;;;;1.77;1.30;;;39.00;60.90;;;;;;6178987;23;20499;-65
2022/07/13 09:09:43;;;;;;;3.95;1.20;;;38.60;61.20;;;;;;6162897;23;20024;-65
2022/07/13 09:12:46;;;;;;;1.77;1.00;;;37.70;62.40;;;;;;6181041;23;20028;-65
2022/07/13 09:16:13;;;;;;;4.75;1.02;;;37.20;62.10;;;;;;6179100;23;20467;-66
2022/07/13 09:19:18;;;;;;;2.47;1.10;;;38.40;60.30;;;;;;6178744;23;20020;-65
2022/07/13 09:22:23;;;;;;;2.03;1.00;;;38.80;59.80;;;;;;6179009;23;20012;-66
2022/07/13 09:25:37;;;;;;;9.32;1.20;;;36.70;60.00;;;;;;6178207;23;20015;-65
2022/07/13 09:28:44;;;;;;;2.10;0.85;;;38.00;59.80;;;;;;6181518;23;20027;-65
2022/07/13 09:31:58;;;;;;;1.73;0.93;;;37.70;60.30;;;;;;6178154;23;20036;-65
2022/07/13 09:35:03;;;;;;;4.68;1.00;;;38.60;56.70;;;;;;6178410;23;20455;-65
2022/07/13 09:38:07;;;;;;;2.80;0.85;;;41.60;57.50;;;;;;6180103;23;20020;-66
2022/07/13 09:41:17;;;;;;;2.20;0.98;;;42.30;56.00;;;;;;6177678;23;20029;-66
2022/07/13 09:47:55;;;;;;;1.98;0.88;;;44.40;53.80;;;;;;6161742;23;20024;-65
2022/07/13 09:50:59;;;;;;;16.05;1.15;;;45.20;53.60;;;;;;6179325;23;20035;-65
2022/07/13 09:54:03;;;;;;;2.10;0.80;;;44.70;53.10;;;;;;6180450;23;20024;-66
2022/07/13 09:57:10;;;;;;;2.35;0.90;;;39.60;53.70;;;;;;6179914;23;20023;-65
2022/07/13 10:00:17;;;;;;;7.38;1.00;;;40.40;55.80;;;;;;6179215;23;20024;-64
2022/07/13 10:03:22;;;;;;;2.25;0.80;;;41.60;54.90;;;;;;6183418;23;20016;-65
2022/07/13 10:06:27;;;;;;;2.28;0.98;;;42.70;53.80;;;;;;6179133;23;20032;-65
2022/07/13 10:09:31;;;;;;;1.90;0.90;;;45.10;53.00;;;;;;6182265;23;20016;-65
2022/07/13 10:12:36;;;;;;;1.73;0.73;;;47.40;51.40;;;;;;6180519;23;20042;-64
2022/07/13 10:15:41;;;;;;;2.10;0.63;;;47.30;50.40;;;;;;6182472;23;20024;-64
2022/07/13 10:18:45;;;;;;;1.23;0.88;;;48.40;49.80;;;;;;6178912;23;20008;-63
2022/07/13 10:21:59;;;;;;;1.98;0.80;;;46.70;48.30;;;;;;6180778;23;20020;-66
2022/07/13 10:25:04;;;;;;;3.25;0.70;;;44.20;49.40;;;;;;6178836;23;20013;-65
2022/07/13 10:28:09;;;;;;;4.07;0.90;;;45.40;50.20;;;;;;6178843;23;20024;-65
2022/07/13 10:31:27;;;;;;;2.03;1.13;;;40.60;51.50;;;;;;6178230;23;20028;-65
2022/07/13 10:34:57;;;;;;;2.83;0.70;;;39.90;51.90;;;;;;6179625;23;20020;-65
2022/07/13 10:38:01;;;;;;;1.30;0.80;;;43.70;51.20;;;;;;6179074;23;20020;-65
2022/07/13 10:41:22;;;;;;;1.98;0.90;;;41.70;50.90;;;;;;6178922;23;20040;-65
2022/07/13 10:44:30;;;;;;;1.13;0.65;;;41.40;50.90;;;;;;6157825;23;20024;-65
2022/07/13 10:47:45;;;;;;;5.22;1.00;;;41.20;51.50;;;;;;6176893;23;20020;-65
2022/07/13 10:50:57;;;;;;;1.45;0.73;;;41.80;50.40;;;;;;6178982;23;20024;-65
2022/07/13 10:54:03;;;;;;;1.58;0.77;;;42.80;50.50;;;;;;6176212;23;20024;-65
2022/07/13 10:57:14;;;;;;;3.45;0.80;;;42.50;50.50;;;;;;6177122;23;20024;-65
2022/07/13 11:00:19;;;;;;;1.45;0.80;;;44.40;49.60;;;;;;6177775;23;20348;-65
2022/07/13 11:03:43;;;;;;;3.72;0.88;;;45.90;49.10;;;;;;6177850;23;20019;-65
2022/07/13 11:07:07;;;;;;;1.92;0.80;;;46.20;48.80;;;;;;6178393;23;20020;-65
2022/07/13 11:10:22;;;;;;;3.10;0.65;;;47.50;47.90;;;;;;6180822;23;20028;-66
2022/07/13 11:13:28;;;;;;;1.05;0.60;;;45.50;47.70;;;;;;6183389;23;20028;-65
2022/07/13 11:16:46;;;;;;;5.20;0.90;;;45.10;48.50;;;;;;6180155;23;20024;-66
2022/07/13 11:19:58;;;;;;;2.97;0.90;;;44.00;48.20;;;;;;6183875;23;20028;-66
2022/07/13 11:26:48;;;;;;;1.55;0.75;;;46.70;47.90;;;;;;6179834;23;20367;-65
2022/07/13 11:30:00;;;;;;;2.08;0.68;;;46.80;47.60;;;;;;6180403;23;20024;-65
2022/07/13 11:33:11;;;;;;;1.50;0.60;;;45.50;47.20;;;;;;6179117;23;20025;-65
2022/07/13 11:36:19;;;;;;;4.70;0.98;;;44.80;47.60;;;;;;6160516;23;20340;-65
2022/07/13 11:39:28;;;;;;;2.10;0.80;;;44.20;48.00;;;;;;6178359;23;20020;-65
2022/07/13 11:42:32;;;;;;;2.57;0.90;;;42.90;48.90;;;;;;6177270;23;20012;-64
2022/07/13 11:45:39;;;;;;;3.88;0.80;;;42.10;49.70;;;;;;6180975;23;20243;-63
2022/07/13 11:51:23;;;;;;;0.90;0.85;;;41.70;49.50;;;;;;5069244;28;20396;-53
2022/07/13 11:54:28;;;;;;;0.77;0.60;;;42.80;49.30;;;;;;5076997;28;20028;-54
2022/07/13 11:57:33;;;;;;;1.52;0.73;;;44.00;48.80;;;;;;5035659;28;20037;-54
2022/07/13 12:00:37;;;;;;;1.33;0.68;;;44.80;48.30;;;;;;5045500;28;20061;-55
2022/07/13 12:03:51;;;;;;;4.72;1.00;;;45.00;47.70;;;;;;5066572;22;20041;-52
2022/07/13 12:07:19;;;;;;;1.40;0.80;;;40.10;49.40;;;;;;5046397;28;20491;-50
2022/07/13 12:10:23;;;;;;;2.03;0.90;;;36.00;52.90;;;;;;5046196;28;20413;-55
2022/07/13 12:13:30;;;;;;;6.07;1.25;;;37.20;53.20;;;;;;5074765;28;20032;-52
2022/07/13 12:16:34;;;;;;;1.17;1.00;;;39.20;51.90;;;;;;5050907;28;20040;-54
2022/07/13 12:19:38;;;;;;;1.25;0.80;;;40.80;51.00;;;;;;5060554;28;20036;-55
2022/07/13 12:22:51;;;;;;;2.42;0.80;;;41.70;50.30;;;;;;5064887;28;20037;-56
2022/07/13 12:26:06;;;;;;;1.50;0.80;;;42.30;49.80;;;;;;5065423;28;20495;-55
2022/07/13 12:29:29;;;;;;;1.63;1.08;;;43.10;48.70;;;;;;5064937;28;20029;-55
2022/07/13 12:32:57;;;;;;;1.13;0.80;;;41.70;49.30;;;;;;5061914;28;20037;-56
2022/07/13 12:36:05;;;;;;;1.52;0.90;;;40.60;49.20;;;;;;5062951;28;20029;-53
2022/07/13 12:39:09;;;;;;;3.10;1.00;;;40.00;50.20;;;;;;5067518;28;20033;-55
2022/07/13 12:42:14;;;;;;;2.78;1.38;;;40.90;48.90;;;;;;5066564;28;20032;-56
2022/07/13 12:45:18;;;;;;;1.30;0.93;;;41.30;48.70;;;;;;5073474;28;20040;-54
2022/07/13 12:48:24;;;;;;;0.80;0.60;;;41.50;47.60;;;;;;5067448;28;20045;-53
2022/07/13 12:51:52;;;;;;;1.95;0.90;;;39.20;48.20;;;;;;5071839;28;20040;-55
2022/07/13 12:54:57;;;;;;;1.00;0.73;;;39.00;48.10;;;;;;5060960;28;20040;-55
2022/07/13 12:58:01;;;;;;;2.88;1.05;;;39.70;49.40;;;;;;5063707;28;20045;-52
2022/07/13 13:01:05;;;;;;;1.63;0.77;;;40.20;48.70;;;;;;5059618;28;20053;-55
2022/07/13 13:04:11;;;;;;;1.50;0.90;;;37.50;50.30;;;;;;5047082;28;20389;-55
2022/07/13 13:07:17;;;;;;;1.45;0.90;;;37.00;50.90;;;;;;5054125;28;20444;-53
2022/07/13 13:10:20;;;;;;;1.05;0.80;;;36.60;50.30;;;;;;5049411;28;20037;-52
2022/07/13 13:13:24;;;;;;;0.90;0.80;;;36.40;50.70;;;;;;5042492;28;20396;-55
2022/07/13 13:16:29;;;;;;;1.25;0.73;;;36.90;50.10;;;;;;5049597;28;20029;-54
2022/07/13 13:19:32;;;;;;;1.08;0.95;;;36.60;49.90;;;;;;5042779;28;20048;-54
2022/07/13 13:22:36;;;;;;;1.23;0.70;;;37.60;49.40;;;;;;5047106;28;20181;-54
2022/07/13 13:25:41;;;;;;;1.38;0.65;;;38.50;49.80;;;;;;5047140;28;20048;-52
2022/07/13 13:32:08;;;;;;;1.33;0.60;;;39.30;47.50;;;;;;5047105;28;20373;-55
2022/07/13 13:35:12;;;;;;;0.82;0.70;;;39.80;48.50;;;;;;5048612;28;20059;-51
2022/07/13 13:38:16;;;;;;;1.30;0.70;;;40.60;48.90;;;;;;5047320;28;20029;-56
2022/07/13 13:41:20;;;;;;;1.05;0.63;;;40.90;48.20;;;;;;5046430;28;20037;-57
2022/07/13 13:44:24;;;;;;;2.35;0.70;;;41.00;47.70;;;;;;5042966;28;20384;-57
2022/07/13 13:47:28;;;;;;;1.80;0.98;;;40.50;48.10;;;;;;5047583;28;20044;-55
2022/07/13 13:50:32;;;;;;;1.60;0.88;;;40.40;48.20;;;;;;5045102;28;20033;-54
2022/07/13 13:53:35;;;;;;;0.88;0.68;;;40.10;48.80;;;;;;5046192;28;20025;-56
2022/07/13 13:56:40;;;;;;;2.72;0.60;;;40.10;48.40;;;;;;5047657;28;20029;-55
2022/07/13 13:59:44;;;;;;;4.82;0.90;;;40.00;49.20;;;;;;5045537;28;20037;-56
2022/07/13 14:02:48;;;;;;;8.68;0.90;;;40.00;49.10;;;;;;5046385;28;20037;-52
2022/07/13 14:05:54;;;;;;;6.72;0.80;;;39.80;49.20;;;;;;5048717;28;20316;-56
2022/07/13 14:08:58;;;;;;;4.72;0.90;;;39.80;49.20;;;;;;5046450;28;20037;-56
2022/07/13 14:12:02;;;;;;;1.70;0.70;;;39.70;48.90;;;;;;5048119;28;20044;-57
2022/07/13 14:15:09;;;;;;;1.77;1.05;;;39.70;48.60;;;;;;5046526;28;20029;-54
2022/07/13 14:18:14;;;;;;;0.60;0.60;;;39.40;48.90;;;;;;5046790;28;20025;-55
2022/07/13 14:21:18;;;;;;;1.15;0.80;;;39.50;48.80;;;;;;5047015;28;20298;-52
2022/07/13 14:24:23;;;;;;;5.03;0.93;;;39.40;48.40;;;;;;5048312;28;20041;-54
2022/07/13 14:27:27;;;;;;;1.48;0.82;;;39.10;49.00;;;;;;5049125;28;20496;-55
2022/07/13 14:30:32;;;;;;;1.98;0.95;;;38.80;49.00;;;;;;5045025;28;20380;-55
2022/07/13 14:33:36;;;;;;;1.63;1.48;;;38.70;49.20;;;;;;5047241;28;20029;-52
2022/07/13 14:36:40;;;;;;;1.88;1.25;;;38.30;49.20;;;;;;5045122;28;20036;-54
2022/07/13 14:39:44;;;;;;;1.90;0.90;;;38.10;48.40;;;;;;5044014;28;20033;-53
2022/07/13 14:42:48;;;;;;;2.17;1.00;;;37.80;49.00;;;;;;5044911;28;20033;-51
2022/07/13 14:45:52;;;;;;;1.92;0.73;;;37.80;49.40;;;;;;5048742;28;20041;-51
2022/07/13 14:48:56;;;;;;;4.10;1.00;;;37.70;49.30;;;;;;5049411;28;20032;-54
2022/07/13 14:52:04;;;;;;;1.05;0.68;;;37.50;49.20;;;;;;5047938;28;20067;-55
2022/07/13 14:55:08;;;;;;;9.48;1.35;;;37.40;49.20;;;;;;5045900;28;20040;-56
2022/07/13 14:58:12;;;;;;;3.25;0.90;;;37.30;49.70;;;;;;5049013;28;20049;-56
2022/07/13 15:01:16;;;;;;;1.95;1.10;;;37.10;49.30;;;;;;5037790;28;20037;-52
2022/07/13 15:04:23;;;;;;;1.05;0.70;;;36.80;49.90;;;;;;5046364;28;20044;-53
2022/07/13 15:07:26;;;;;;;4.40;0.98;;;36.50;49.40;;;;;;5048570;28;20040;-54
2022/07/13 15:10:31;;;;;;;1.38;0.77;;;36.40;49.90;;;;;;5044046;28;20032;-51
2022/07/13 15:13:35;;;;;;;1.95;0.85;;;36.50;49.40;;;;;;5042683;28;20039;-56
2022/07/13 15:16:39;;;;;;;2.30;0.90;;;36.40;49.40;;;;;;5049084;28;20411;-55
2022/07/13 15:19:43;;;;;;;1.60;0.73;;;36.50;49.30;;;;;;5048853;28;20514;-51
2022/07/13 15:22:47;;;;;;;1.15;0.70;;;36.50;49.70;;;;;;5050739;28;20052;-54
2022/07/13 15:25:53;;;;;;;0.80;0.80;;;36.50;49.80;;;;;;5048784;28;20040;-56
2022/07/13 15:28:58;;;;;;;3.15;0.77;;;36.40;50.10;;;;;;5049174;28;20041;-55
2022/07/13 15:32:04;;;;;;;4.90;0.90;;;36.30;50.60;;;;;;5046655;28;20408;-56
2022/07/13 15:35:08;;;;;;;1.67;0.80;;;36.10;50.80;;;;;;5049023;28;20041;-53
2022/07/13 15:38:13;;;;;;;4.40;0.98;;;36.10;50.80;;;;;;5048587;28;20029;-52
2022/07/13 15:41:22;;;;;;;1.55;0.70;;;36.10;51.20;;;;;;5039783;28;20056;-52
2022/07/13 15:44:26;;;;;;;1.85;1.02;;;36.20;51.20;;;;;;5048966;28;20488;-53
2022/07/13 15:47:30;;;;;;;2.92;1.15;;;36.00;51.00;;;;;;5048129;28;20072;-54
2022/07/13 15:50:34;;;;;;;4.22;0.90;;;35.90;50.50;;;;;;5047535;28;20049;-53
2022/07/13 15:53:38;;;;;;;2.42;0.70;;;35.70;50.00;;;;;;5047648;28;20041;-51
2022/07/13 15:56:42;;;;;;;1.85;0.75;;;35.50;50.80;;;;;;5048632;28;20037;-51
2022/07/13 15:59:46;;;;;;;1.55;0.75;;;35.30;51.20;;;;;;5049519;28;20044;-51
2022/07/13 16:02:51;;;;;;;5.47;0.80;;;35.10;52.20;;;;;;5049327;28;20040;-55
2022/07/13 16:05:55;;;;;;;1.80;0.90;;;35.10;52.00;;;;;;5048826;28;20407;-54
2022/07/13 16:08:59;;;;;;;2.63;0.55;;;35.20;51.50;;;;;;5042897;28;20041;-55
2022/07/13 16:12:03;;;;;;;1.25;0.77;;;35.10;50.50;;;;;;5047781;28;20068;-55
2022/07/13 16:15:07;;;;;;;2.78;0.90;;;35.00;50.00;;;;;;5048296;28;20043;-56
2022/07/13 16:18:11;;;;;;;2.15;0.57;;;34.90;50.60;;;;;;5049189;28;20052;-55
2022/07/13 16:21:15;;;;;;;1.02;0.70;;;34.70;50.70;;;;;;5049182;28;20052;-52
2022/07/13 16:24:20;;;;;;;3.05;0.70;;;34.60;51.60;;;;;;5048782;28;20233;-53